createdAt,value
2022-10-31T00:02:03.871Z,94.23
2022-10-31T00:04:33.882Z,95.85
2022-10-31T00:07:04.777Z,95.11
2022-10-31T00:09:34.163Z,93.68
2022-10-31T00:12:03.432Z,93.00
2022-10-31T00:14:32.814Z,92.25
2022-10-31T00:17:02.195Z,90.40
2022-10-31T00:19:31.508Z,90.20
2022-10-31T00:22:00.921Z,90.13
2022-10-31T00:24:31.882Z,91.61
2022-10-31T00:27:01.184Z,94.05
2022-10-31T00:29:30.168Z,92.76
2022-10-31T00:31:59.271Z,91.65
2022-10-31T00:34:28.640Z,90.49
2022-10-31T00:36:58.021Z,90.42
2022-10-31T00:39:27.837Z,91.14
2022-10-31T00:41:59.138Z,92.36
2022-10-31T00:44:29.742Z,91.43
2022-10-31T00:46:59.294Z,89.93
2022-10-31T00:49:28.921Z,91.09
2022-10-31T00:51:58.194Z,89.91
2022-10-31T00:54:27.792Z,90.27
2022-10-31T00:56:58.679Z,89.59
2022-10-31T00:59:28.099Z,92.41
2022-10-31T01:01:57.786Z,88.87
2022-10-31T01:04:27.347Z,91.13
2022-10-31T01:06:56.673Z,91.63
2022-10-31T01:09:26.178Z,90.38
2022-10-31T01:11:55.489Z,88.57
2022-10-31T01:14:26.314Z,88.49
2022-10-31T01:16:55.538Z,87.28
2022-10-31T01:19:25.090Z,87.62
2022-10-31T01:21:57.208Z,89.17
2022-10-31T01:24:26.791Z,88.81
2022-10-31T01:26:56.158Z,89.29
2022-10-31T01:29:27.058Z,88.21
2022-10-31T01:31:56.526Z,89.02
2022-10-31T01:34:26.128Z,92.49
2022-10-31T01:36:55.588Z,89.99
2022-10-31T01:39:25.509Z,91.09
2022-10-31T01:41:55.987Z,90.51
2022-10-31T01:44:52.916Z,87.45
2022-10-31T01:47:30.027Z,86.81
2022-10-31T01:50:01.729Z,89.14
2022-10-31T01:52:34.636Z,89.65
2022-10-31T01:55:07.829Z,89.30
2022-10-31T01:57:38.054Z,91.57
2022-10-31T02:00:12.329Z,86.34
2022-10-31T02:02:41.896Z,88.33
2022-10-31T02:05:15.092Z,88.12
2022-10-31T02:07:53.477Z,87.24
2022-10-31T02:10:25.831Z,88.89
2022-10-31T02:13:03.337Z,87.82
2022-10-31T02:15:35.580Z,90.41
2022-10-31T02:18:05.708Z,91.33
2022-10-31T02:20:39.999Z,90.81
2022-10-31T02:23:34.142Z,91.19
2022-10-31T02:26:28.778Z,89.04
2022-10-31T02:29:14.512Z,86.97
2022-10-31T02:31:49.004Z,86.45
2022-10-31T02:34:22.888Z,86.92
2022-10-31T02:36:58.741Z,86.14
2022-10-31T02:39:31.809Z,88.79
2022-10-31T02:42:09.072Z,87.81
2022-10-31T02:44:40.686Z,84.32
2022-10-31T02:47:15.961Z,86.26
2022-10-31T02:49:50.729Z,86.52
2022-10-31T02:52:21.173Z,87.80
2022-10-31T02:54:51.499Z,89.12
2022-10-31T02:57:25.490Z,89.90
2022-10-31T02:59:57.747Z,86.75
2022-10-31T03:02:56.982Z,89.14
2022-10-31T03:05:38.139Z,89.30
2022-10-31T03:08:14.278Z,86.87
2022-10-31T03:10:46.155Z,88.24
2022-10-31T03:16:02.328Z,89.52
2022-10-31T03:18:34.186Z,88.76
2022-10-31T03:21:08.236Z,89.57
2022-10-31T03:23:39.306Z,89.19
2022-10-31T03:26:09.954Z,87.63
2022-10-31T03:28:50.113Z,87.94
2022-10-31T03:31:21.181Z,88.38
2022-10-31T03:33:51.113Z,87.68
2022-10-31T03:36:22.094Z,87.67
2022-10-31T03:38:51.703Z,88.80
2022-10-31T03:41:26.535Z,88.09
2022-10-31T03:43:58.282Z,87.85
2022-10-31T03:46:27.753Z,87.60
2022-10-31T03:48:57.405Z,87.90
2022-10-31T03:51:31.659Z,88.32
2022-10-31T03:54:04.426Z,88.94
2022-10-31T03:56:37.767Z,88.89
2022-10-31T03:59:09.974Z,86.71
2022-10-31T04:01:44.067Z,88.38
2022-10-31T04:04:14.049Z,88.68
2022-10-31T04:06:45.906Z,86.62
2022-10-31T04:09:16.420Z,85.93
2022-10-31T04:11:47.745Z,87.49
2022-10-31T04:14:17.032Z,89.34
2022-10-31T04:16:47.080Z,85.56
2022-10-31T04:19:17.577Z,84.78
2022-10-31T04:21:49.977Z,84.98
2022-10-31T04:24:19.938Z,89.53
2022-10-31T04:26:49.145Z,87.73
2022-10-31T04:29:18.511Z,88.59
2022-10-31T04:31:47.893Z,88.76
2022-10-31T04:34:42.016Z,89.60
2022-10-31T04:37:12.774Z,89.12
2022-10-31T04:39:42.252Z,88.18
2022-10-31T04:42:11.520Z,85.64
2022-10-31T04:44:41.063Z,87.99
2022-10-31T04:47:10.277Z,85.76
2022-10-31T04:49:39.513Z,87.79
2022-10-31T04:52:09.171Z,87.62
2022-10-31T04:54:39.802Z,86.59
2022-10-31T04:57:09.443Z,86.92
2022-10-31T04:59:38.633Z,88.67
2022-10-31T05:02:07.971Z,86.91
2022-10-31T05:04:37.346Z,87.14
2022-10-31T05:07:06.656Z,87.10
2022-10-31T05:09:36.064Z,85.33
2022-10-31T05:12:06.868Z,85.13
2022-10-31T05:14:36.420Z,85.70
2022-10-31T05:17:05.979Z,85.75
2022-10-31T05:19:35.557Z,87.78
2022-10-31T05:22:04.958Z,86.93
2022-10-31T05:24:34.413Z,84.55
2022-10-31T05:27:05.367Z,88.83
2022-10-31T05:29:34.975Z,89.56
2022-10-31T05:32:04.643Z,87.93
2022-10-31T05:34:35.057Z,87.54
2022-10-31T05:37:04.338Z,87.77
2022-10-31T05:39:33.787Z,87.17
2022-10-31T05:42:03.236Z,86.34
2022-10-31T05:44:34.484Z,87.76
2022-10-31T05:47:03.874Z,88.88
2022-10-31T05:49:33.290Z,86.59
2022-10-31T05:52:02.792Z,88.39
2022-10-31T05:54:32.185Z,87.38
2022-10-31T05:57:01.861Z,88.05
2022-10-31T05:59:31.092Z,86.22
2022-10-31T06:02:01.877Z,88.94
2022-10-31T06:04:31.156Z,87.69
2022-10-31T06:07:00.598Z,85.00
2022-10-31T06:09:29.935Z,87.26
2022-10-31T06:11:59.452Z,86.79
2022-10-31T06:14:28.738Z,85.07
2022-10-31T06:16:58.725Z,85.49
2022-10-31T06:19:29.527Z,89.69
2022-10-31T06:21:59.204Z,87.21
2022-10-31T06:24:28.614Z,87.35
2022-10-31T06:26:57.993Z,89.43
2022-10-31T06:29:27.408Z,86.58
2022-10-31T06:31:56.929Z,90.63
2022-10-31T06:34:26.513Z,88.21
2022-10-31T06:36:57.516Z,87.58
2022-10-31T06:39:27.109Z,88.80
2022-10-31T06:41:56.620Z,89.10
2022-10-31T06:44:26.412Z,89.31
2022-10-31T06:46:56.382Z,91.24
2022-10-31T06:49:27.062Z,91.08
2022-10-31T06:51:58.080Z,90.31
2022-10-31T06:54:27.520Z,93.74
2022-10-31T06:56:56.972Z,92.78
2022-10-31T06:59:26.377Z,89.65
2022-10-31T07:02:00.376Z,87.09
2022-10-31T07:04:34.805Z,89.37
2022-10-31T07:07:07.356Z,91.19
2022-10-31T07:09:37.602Z,93.69
2022-10-31T07:12:09.667Z,91.90
2022-10-31T07:14:41.464Z,98.55
2022-10-31T07:17:12.711Z,100.00
2022-10-31T07:19:57.993Z,99.06
2022-10-31T07:22:57.374Z,100.00
2022-10-31T07:25:34.143Z,100.00
2022-10-31T07:28:11.849Z,99.33
2022-10-31T07:37:42.732Z,93.39
2022-10-31T07:40:33.953Z,95.07
2022-10-31T07:43:15.175Z,91.92
2022-10-31T07:45:54.362Z,92.97
2022-10-31T07:48:38.749Z,92.25
2022-10-31T07:51:22.022Z,95.82
2022-10-31T07:53:57.069Z,92.48
2022-10-31T07:56:34.383Z,93.52
2022-10-31T07:59:03.905Z,94.65
2022-10-31T08:01:33.340Z,91.51
2022-10-31T08:04:03.838Z,92.10
2022-10-31T08:06:33.272Z,91.01
2022-10-31T08:09:02.704Z,93.50
2022-10-31T08:11:34.326Z,92.79
2022-10-31T08:14:07.010Z,93.53
2022-10-31T08:16:36.525Z,94.33
2022-10-31T08:19:08.897Z,96.81
2022-10-31T08:21:38.372Z,95.58
2022-10-31T08:24:09.467Z,97.08
2022-10-31T08:26:40.382Z,94.57
2022-10-31T08:29:36.708Z,96.81
2022-10-31T08:32:06.595Z,95.65
2022-10-31T08:34:36.124Z,93.51
2022-10-31T08:37:05.381Z,95.84
2022-10-31T08:39:34.666Z,92.27
2022-10-31T08:42:05.650Z,95.89
2022-10-31T08:44:35.039Z,97.24
2022-10-31T08:47:04.341Z,94.54
2022-10-31T08:49:33.775Z,94.73
2022-10-31T08:52:03.122Z,94.67
2022-10-31T08:54:33.488Z,92.05
2022-10-31T08:57:04.564Z,92.39
2022-10-31T08:59:33.793Z,92.56
2022-10-31T09:02:03.384Z,93.80
2022-10-31T09:04:32.721Z,91.56
2022-10-31T09:07:20.177Z,94.30
2022-10-31T09:09:50.480Z,91.16
2022-10-31T09:12:27.989Z,92.52
2022-10-31T09:15:01.901Z,93.47
2022-10-31T09:17:35.061Z,91.86
2022-10-31T09:20:23.948Z,91.41
2022-10-31T09:22:59.242Z,89.55
2022-10-31T09:25:33.048Z,90.93
2022-10-31T09:28:16.315Z,89.79
2022-10-31T09:30:52.000Z,87.27
2022-10-31T09:33:21.739Z,89.15
2022-10-31T09:35:54.611Z,87.16
2022-10-31T09:38:30.865Z,85.22
2022-10-31T09:41:10.335Z,86.52
2022-10-31T09:43:49.829Z,84.56
2022-10-31T09:46:25.410Z,83.60
2022-10-31T09:49:06.635Z,84.98
2022-10-31T09:51:39.220Z,83.67
2022-10-31T09:54:13.248Z,84.00
2022-10-31T09:56:42.960Z,83.06
2022-10-31T09:59:27.248Z,85.36
2022-10-31T10:01:58.955Z,86.15
2022-10-31T10:04:37.118Z,80.48
2022-10-31T10:07:15.470Z,80.17
2022-10-31T10:09:44.963Z,78.23
2022-10-31T10:12:21.678Z,78.81
2022-10-31T10:15:06.440Z,79.62
2022-10-31T10:17:41.371Z,78.60
2022-10-31T10:20:38.442Z,76.70
2022-10-31T10:23:30.639Z,77.11
2022-10-31T10:31:16.616Z,72.16
2022-10-31T10:38:57.875Z,72.16
2022-10-31T10:41:36.103Z,68.70
2022-10-31T10:44:10.814Z,67.86
2022-10-31T10:47:01.679Z,72.13
2022-10-31T10:49:37.000Z,65.89
2022-10-31T10:55:11.382Z,63.38
2022-10-31T10:58:02.740Z,64.87
2022-10-31T11:00:34.744Z,64.20
2022-10-31T11:03:06.060Z,63.17
2022-10-31T11:05:39.020Z,62.72
2022-10-31T11:08:09.392Z,61.21
2022-10-31T11:10:38.903Z,60.66
2022-10-31T11:13:24.465Z,61.76
2022-10-31T11:15:58.517Z,59.08
2022-10-31T11:18:29.939Z,58.60
2022-10-31T11:21:02.186Z,57.74
2022-10-31T11:23:32.101Z,59.42
2022-10-31T11:26:03.197Z,57.90
2022-10-31T11:28:35.980Z,57.83
2022-10-31T11:31:09.996Z,56.39
2022-10-31T11:33:42.605Z,55.86
2022-10-31T11:36:19.344Z,56.79
2022-10-31T11:38:49.160Z,59.15
2022-10-31T11:41:20.106Z,55.82
2022-10-31T11:43:53.333Z,55.13
2022-10-31T11:46:33.168Z,56.69
2022-10-31T11:49:02.931Z,54.55
2022-10-31T11:51:35.056Z,54.78
2022-10-31T11:54:05.737Z,55.05
2022-10-31T11:56:45.082Z,55.07
2022-10-31T11:59:26.157Z,55.38
2022-10-31T12:01:57.085Z,54.24
2022-10-31T12:04:42.521Z,55.66
2022-10-31T12:07:12.409Z,53.33
2022-10-31T12:09:42.562Z,51.56
2022-10-31T12:12:36.612Z,52.06
2022-10-31T12:15:31.746Z,51.67
2022-10-31T12:18:30.895Z,51.00
2022-10-31T12:21:15.826Z,52.39
2022-10-31T12:23:54.584Z,52.31
2022-10-31T12:26:28.752Z,51.50
2022-10-31T12:29:14.956Z,52.39
2022-10-31T12:32:00.347Z,53.21
2022-10-31T12:35:01.846Z,50.60
2022-10-31T12:37:41.468Z,53.31
2022-10-31T12:40:25.713Z,51.09
2022-10-31T12:43:06.058Z,50.64
2022-10-31T12:45:55.615Z,53.24
2022-10-31T12:51:46.631Z,49.12
2022-10-31T12:54:34.804Z,51.61
2022-10-31T12:57:11.953Z,52.32
2022-10-31T12:59:45.047Z,51.46
2022-10-31T13:02:19.227Z,51.39
2022-10-31T13:04:51.956Z,49.90
2022-10-31T13:07:26.662Z,50.71
2022-10-31T13:09:59.526Z,49.67
2022-10-31T13:12:34.754Z,48.32
2022-10-31T13:15:14.912Z,51.13
2022-10-31T13:17:47.759Z,50.89
2022-10-31T13:20:26.030Z,50.91
2022-10-31T13:23:00.230Z,50.06
2022-10-31T13:25:32.851Z,51.88
2022-10-31T13:28:03.599Z,52.08
2022-10-31T13:30:35.554Z,52.48
2022-10-31T13:33:12.628Z,52.10
2022-10-31T13:35:47.173Z,54.44
2022-10-31T13:38:24.130Z,52.71
2022-10-31T13:40:57.559Z,53.12
2022-10-31T13:43:32.863Z,53.26
2022-10-31T13:46:02.317Z,54.86
2022-10-31T13:48:40.695Z,52.86
2022-10-31T13:51:12.329Z,54.57
2022-10-31T13:53:46.425Z,54.36
2022-10-31T13:56:23.263Z,55.12
2022-10-31T13:59:03.295Z,56.04
2022-10-31T14:01:33.679Z,56.22
2022-10-31T14:04:12.967Z,56.02
2022-10-31T14:06:48.700Z,56.72
2022-10-31T14:09:31.789Z,58.54
2022-10-31T14:12:04.683Z,58.66
2022-10-31T14:14:47.262Z,56.52
2022-10-31T14:17:22.545Z,58.49
2022-10-31T14:20:36.190Z,58.42
2022-10-31T14:23:41.424Z,58.18
2022-10-31T14:26:37.404Z,59.79
2022-10-31T14:29:23.624Z,60.08
2022-10-31T14:31:58.350Z,59.78
2022-10-31T14:34:32.243Z,60.38
2022-10-31T14:37:27.499Z,60.32
2022-10-31T14:40:09.209Z,61.17
2022-10-31T14:42:56.827Z,60.29
2022-10-31T14:45:34.976Z,62.29
2022-10-31T14:48:20.299Z,61.99
2022-10-31T14:50:52.345Z,59.22
2022-10-31T14:53:24.719Z,61.03
2022-10-31T14:55:56.616Z,62.75
2022-10-31T14:58:32.798Z,64.09
2022-10-31T15:01:02.758Z,62.08
2022-10-31T15:03:35.977Z,63.49
2022-10-31T15:06:08.272Z,64.00
2022-10-31T15:08:40.556Z,63.88
2022-10-31T15:11:14.629Z,65.43
2022-10-31T15:13:50.232Z,66.57
2022-10-31T15:16:23.545Z,66.00
2022-10-31T15:18:57.630Z,66.90
2022-10-31T15:21:29.291Z,67.76
2022-10-31T15:24:00.222Z,68.32
2022-10-31T15:26:33.786Z,68.44
2022-10-31T15:29:08.540Z,68.83
2022-10-31T15:31:40.964Z,69.06
2022-10-31T15:34:26.558Z,69.74
2022-10-31T15:36:59.247Z,70.10
2022-10-31T15:39:28.394Z,71.37
2022-10-31T15:41:59.183Z,72.57
2022-10-31T15:44:32.369Z,73.28
2022-10-31T15:47:04.113Z,74.30
2022-10-31T15:49:37.752Z,75.42
2022-10-31T15:52:11.920Z,76.04
2022-10-31T15:54:48.987Z,77.04
2022-10-31T15:57:18.805Z,77.64
2022-10-31T15:59:57.065Z,77.26
2022-10-31T16:02:29.038Z,78.91
2022-10-31T16:05:18.715Z,78.80
2022-10-31T16:07:52.177Z,79.73
2022-10-31T16:10:26.578Z,79.91
2022-10-31T16:12:56.456Z,80.47
2022-10-31T16:15:27.460Z,80.71
2022-10-31T16:18:01.477Z,81.64
2022-10-31T16:20:33.731Z,81.89
2022-10-31T16:23:18.754Z,82.97
2022-10-31T16:25:50.862Z,82.48
2022-10-31T16:28:30.189Z,83.93
2022-10-31T16:31:02.744Z,83.20
2022-10-31T16:33:37.146Z,83.92
2022-10-31T16:36:35.403Z,84.86
2022-10-31T16:39:06.051Z,85.31
2022-10-31T16:41:37.153Z,85.28
2022-10-31T16:44:08.075Z,85.23
2022-10-31T16:46:39.162Z,86.08
2022-10-31T16:49:11.194Z,86.78
2022-10-31T16:51:40.669Z,86.75
2022-10-31T16:54:15.090Z,87.38
2022-10-31T16:56:44.998Z,87.94
2022-10-31T16:59:17.461Z,87.52
2022-10-31T17:01:57.688Z,88.32
2022-10-31T17:04:30.988Z,88.11
2022-10-31T17:07:09.600Z,87.38
2022-10-31T17:09:49.969Z,88.57
2022-10-31T17:12:25.425Z,87.90
2022-10-31T17:52:35.664Z,89.27
2022-10-31T17:55:05.346Z,89.17
2022-10-31T17:57:36.079Z,91.82
2022-10-31T18:00:07.710Z,89.75
2022-10-31T18:02:38.658Z,90.45
2022-10-31T18:05:09.361Z,90.39
2022-10-31T18:07:40.145Z,89.05
2022-10-31T18:10:10.478Z,90.25
2022-10-31T18:12:39.978Z,90.93
2022-10-31T18:15:12.862Z,89.05
2022-10-31T18:17:42.480Z,90.58
2022-10-31T18:20:12.357Z,89.34
2022-10-31T18:22:43.031Z,89.48
2022-10-31T18:25:12.575Z,91.73
2022-10-31T18:27:41.755Z,88.18
2022-10-31T18:30:11.696Z,88.49
2022-10-31T18:32:40.953Z,86.04
2022-10-31T18:35:10.126Z,90.29
2022-10-31T18:37:39.101Z,89.84
2022-10-31T18:40:10.799Z,88.54
2022-10-31T18:42:39.824Z,90.58
2022-10-31T18:45:11.928Z,91.18
2022-10-31T18:47:53.603Z,92.92
2022-10-31T18:50:23.608Z,91.80
2022-10-31T18:52:53.050Z,91.92
2022-10-31T18:55:24.338Z,94.57
2022-10-31T18:57:53.992Z,93.03
2022-10-31T19:00:23.525Z,95.05
2022-10-31T19:02:56.330Z,95.65
2022-10-31T19:05:26.347Z,97.74
2022-10-31T19:07:55.815Z,96.74
2022-10-31T19:10:26.718Z,97.64
2022-10-31T19:12:56.302Z,98.70
2022-10-31T19:15:26.137Z,100.00
2022-10-31T19:17:55.823Z,100.00
2022-10-31T19:20:25.531Z,100.00
2022-10-31T19:22:55.224Z,100.00
2022-10-31T19:25:26.058Z,100.00
2022-10-31T19:27:55.453Z,100.00
2022-10-31T19:30:24.581Z,100.00
2022-10-31T19:32:56.437Z,100.00
2022-10-31T19:35:25.863Z,100.00
2022-10-31T19:37:54.844Z,100.00
2022-10-31T19:40:24.331Z,100.00
2022-10-31T19:42:55.222Z,100.00
2022-10-31T19:45:24.636Z,100.00
2022-10-31T19:47:54.154Z,100.00
2022-10-31T19:50:23.510Z,100.00
2022-10-31T19:52:52.904Z,100.00
2022-10-31T19:55:22.463Z,100.00
2022-10-31T19:58:07.107Z,100.00
2022-10-31T20:00:39.556Z,100.00
2022-10-31T20:03:09.727Z,100.00
2022-10-31T20:05:42.650Z,100.00
2022-10-31T20:08:16.604Z,100.00
2022-10-31T20:10:55.717Z,100.00
2022-10-31T20:13:25.499Z,100.00
2022-10-31T20:16:00.681Z,100.00
2022-10-31T20:18:30.820Z,100.00
2022-10-31T20:21:05.001Z,100.00
2022-10-31T20:23:34.754Z,100.00
2022-10-31T20:26:05.131Z,99.42
2022-10-31T20:28:38.815Z,100.00
2022-10-31T20:31:16.200Z,100.00
2022-10-31T20:33:45.903Z,100.00
2022-10-31T20:36:15.769Z,100.00
2022-10-31T20:38:45.073Z,100.00
2022-10-31T20:41:15.213Z,100.00
2022-10-31T20:43:45.195Z,100.00
2022-10-31T20:46:18.343Z,100.00
2022-10-31T20:48:48.718Z,100.00
2022-10-31T20:51:21.117Z,100.00
2022-10-31T20:53:50.770Z,100.00
2022-10-31T20:56:21.223Z,100.00
2022-10-31T20:58:51.572Z,100.00
2022-10-31T21:01:23.207Z,100.00
2022-10-31T21:03:53.214Z,100.00
2022-10-31T21:06:23.879Z,100.00
2022-10-31T21:08:53.958Z,100.00
2022-10-31T21:11:25.288Z,100.00
2022-10-31T21:13:55.327Z,100.00
2022-10-31T21:16:28.044Z,100.00
2022-10-31T21:18:58.098Z,100.00
2022-10-31T21:21:32.468Z,100.00
2022-10-31T21:24:04.305Z,100.00
2022-10-31T21:26:36.195Z,100.00
2022-10-31T21:29:06.603Z,100.00
2022-10-31T21:31:38.609Z,100.00
2022-10-31T21:34:08.162Z,100.00
2022-10-31T21:36:37.745Z,100.00
2022-10-31T21:39:08.269Z,100.00
2022-10-31T21:41:37.750Z,100.00
2022-10-31T21:44:07.408Z,100.00
2022-10-31T21:46:38.783Z,100.00
2022-10-31T21:49:08.176Z,100.00
2022-10-31T21:51:37.942Z,100.00
2022-10-31T21:54:25.076Z,100.00
2022-10-31T21:56:54.401Z,100.00
2022-10-31T21:59:23.839Z,100.00
2022-10-31T22:01:56.058Z,100.00
2022-10-31T22:04:25.469Z,100.00
2022-10-31T22:06:55.150Z,100.00
2022-10-31T22:09:24.487Z,100.00
2022-10-31T22:11:53.930Z,100.00
2022-10-31T22:14:23.282Z,100.00
2022-10-31T22:16:53.991Z,100.00
2022-10-31T22:19:23.117Z,100.00
2022-10-31T22:21:52.604Z,100.00
2022-10-31T22:24:21.985Z,100.00
2022-10-31T22:26:51.359Z,100.00
2022-10-31T22:29:23.036Z,100.00
2022-10-31T22:31:58.685Z,100.00
2022-10-31T22:34:29.922Z,100.00
2022-10-31T22:36:58.995Z,100.00
2022-10-31T22:39:28.681Z,100.00
2022-10-31T22:41:58.137Z,100.00
2022-10-31T22:44:27.527Z,100.00
2022-10-31T22:46:57.998Z,100.00
2022-10-31T22:49:27.968Z,100.00
2022-10-31T22:51:59.878Z,100.00
2022-10-31T22:54:29.075Z,100.00
2022-10-31T22:56:58.499Z,100.00
2022-10-31T22:59:27.607Z,100.00
2022-10-31T23:01:58.221Z,100.00
2022-10-31T23:04:27.753Z,100.00
2022-10-31T23:06:57.244Z,100.00
2022-10-31T23:09:26.318Z,100.00
2022-10-31T23:12:15.667Z,100.00
2022-10-31T23:14:44.389Z,100.00
2022-10-31T23:17:17.823Z,100.00
2022-10-31T23:19:47.485Z,100.00
2022-10-31T23:22:16.480Z,100.00
2022-10-31T23:24:46.485Z,100.00
2022-10-31T23:27:16.635Z,100.00
2022-10-31T23:29:48.976Z,100.00
2022-10-31T23:32:22.721Z,100.00
2022-10-31T23:34:53.079Z,100.00
2022-10-31T23:37:24.287Z,100.00
2022-10-31T23:39:53.586Z,100.00
2022-10-31T23:42:23.417Z,100.00
2022-10-31T23:44:53.150Z,100.00
2022-10-31T23:47:24.431Z,100.00
2022-10-31T23:49:54.100Z,100.00
2022-10-31T23:52:23.699Z,100.00
2022-10-31T23:54:52.676Z,100.00
2022-10-31T23:57:21.833Z,100.00
2022-10-31T23:59:51.179Z,100.00
